createdAt,value
2019-03-03T00:00:36.068Z,20.33
2019-03-03T00:03:06.514Z,18.50
2019-03-03T00:05:36.973Z,18.53
2019-03-03T00:08:07.402Z,19.53
2019-03-03T00:10:37.799Z,18.17
2019-03-03T00:13:09.305Z,18.53
2019-03-03T00:15:39.641Z,21.33
2019-03-03T00:18:09.986Z,19.10
2019-03-03T00:20:40.336Z,20.13
2019-03-03T00:23:10.679Z,19.13
2019-03-03T00:25:41.022Z,19.80
2019-03-03T00:28:11.365Z,19.70
2019-03-03T00:30:41.743Z,20.00
2019-03-03T00:33:12.113Z,19.00
2019-03-03T00:35:42.455Z,19.67
2019-03-03T00:38:14.448Z,18.80
2019-03-03T00:40:52.580Z,20.03
2019-03-03T00:43:33.526Z,18.20
2019-03-03T00:46:21.949Z,20.47
2019-03-03T00:48:53.943Z,20.00
2019-03-03T00:51:34.852Z,17.03
2019-03-03T00:54:16.209Z,19.13
2019-03-03T00:56:48.204Z,18.20
2019-03-03T00:59:36.519Z,16.87
2019-03-03T01:02:08.806Z,17.17
2019-03-03T01:04:49.630Z,17.27
2019-03-03T01:07:21.573Z,16.73
2019-03-03T01:09:53.555Z,17.20
2019-03-03T01:12:42.195Z,17.47
2019-03-03T01:15:17.255Z,17.97
2019-03-03T01:17:49.220Z,17.53
2019-03-03T01:20:21.217Z,18.70
2019-03-03T01:22:58.948Z,19.07
2019-03-03T01:25:29.292Z,16.90
2019-03-03T01:27:59.831Z,16.70
2019-03-03T01:30:30.172Z,18.03
2019-03-03T01:33:00.533Z,16.53
2019-03-03T01:35:30.848Z,18.03
2019-03-03T01:38:01.107Z,18.10
2019-03-03T01:40:31.411Z,18.87
2019-03-03T01:43:01.741Z,19.53
2019-03-03T01:45:32.386Z,19.33
2019-03-03T01:48:02.743Z,18.80
2019-03-03T01:50:33.093Z,19.50
2019-03-03T01:53:03.374Z,18.77
2019-03-03T01:55:33.668Z,20.13
2019-03-03T01:58:03.994Z,19.00
2019-03-03T02:00:35.125Z,19.03
2019-03-03T02:03:05.395Z,18.47
2019-03-03T02:05:35.670Z,19.67
2019-03-03T02:08:05.928Z,20.57
2019-03-03T02:10:36.200Z,19.17
2019-03-03T02:13:07.221Z,20.30
2019-03-03T02:15:37.557Z,19.73
2019-03-03T02:18:07.826Z,19.50
2019-03-03T02:20:38.163Z,19.40
2019-03-03T02:23:08.466Z,19.20
2019-03-03T02:25:38.818Z,19.07
2019-03-03T02:28:09.084Z,18.80
2019-03-03T02:30:39.374Z,18.23
2019-03-03T02:33:09.826Z,18.37
2019-03-03T02:35:41.194Z,19.53
2019-03-03T02:38:11.458Z,18.70
2019-03-03T02:40:41.738Z,20.47
2019-03-03T02:43:12.020Z,20.23
2019-03-03T02:45:42.313Z,20.90
2019-03-03T02:48:12.684Z,19.10
2019-03-03T02:50:43.030Z,19.97
2019-03-03T02:53:13.365Z,19.40
2019-03-03T02:55:43.724Z,19.27
2019-03-03T02:58:14.052Z,20.23
2019-03-03T03:00:45.961Z,18.40
2019-03-03T03:03:19.383Z,19.77
2019-03-03T03:05:52.932Z,19.30
2019-03-03T03:08:30.714Z,20.90
2019-03-03T03:11:05.344Z,19.40
2019-03-03T03:13:40.799Z,23.90
2019-03-03T03:16:15.410Z,20.70
2019-03-03T03:18:48.463Z,20.97
2019-03-03T03:21:20.371Z,19.27
2019-03-03T03:23:52.296Z,19.37
2019-03-03T03:26:24.241Z,19.67
2019-03-03T03:29:05.344Z,18.70
2019-03-03T03:31:37.275Z,19.93
2019-03-03T03:34:09.209Z,20.10
2019-03-03T03:36:59.551Z,19.77
2019-03-03T03:39:47.779Z,18.53
2019-03-03T03:42:19.791Z,17.20
2019-03-03T03:45:00.639Z,20.33
2019-03-03T03:47:38.795Z,17.83
2019-03-03T03:50:13.756Z,21.00
2019-03-03T03:52:55.006Z,19.80
2019-03-03T03:55:26.996Z,18.47
2019-03-03T03:58:05.104Z,18.67
2019-03-03T04:00:39.974Z,16.83
2019-03-03T04:03:28.238Z,16.63
2019-03-03T04:06:00.224Z,17.60
2019-03-03T04:08:35.352Z,17.93
2019-03-03T04:11:19.623Z,18.00
2019-03-03T04:13:55.242Z,18.70
2019-03-03T04:16:30.084Z,18.83
2019-03-03T04:19:02.015Z,17.73
2019-03-03T04:21:39.654Z,16.70
2019-03-03T04:24:27.927Z,16.37
2019-03-03T04:27:16.011Z,15.47
2019-03-03T04:29:53.649Z,17.03
2019-03-03T04:32:40.726Z,17.40
2019-03-03T04:35:16.061Z,17.07
2019-03-03T04:37:57.352Z,16.60
2019-03-03T04:40:35.017Z,17.67
2019-03-03T04:43:09.585Z,17.83
2019-03-03T04:45:41.583Z,15.13
2019-03-03T04:48:28.849Z,17.40
2019-03-03T04:51:17.205Z,18.03
2019-03-03T04:54:05.625Z,16.13
2019-03-03T04:56:46.301Z,17.07
2019-03-03T04:59:23.938Z,17.23
2019-03-03T05:02:01.811Z,17.73
2019-03-03T05:04:36.660Z,17.07
2019-03-03T05:07:08.664Z,16.93
2019-03-03T05:09:49.070Z,16.30
2019-03-03T05:12:21.298Z,17.27
2019-03-03T05:14:53.285Z,17.17
2019-03-03T05:17:41.673Z,16.67
2019-03-03T05:20:16.633Z,16.93
2019-03-03T05:22:46.911Z,17.17
2019-03-03T05:25:17.190Z,17.43
2019-03-03T05:27:47.481Z,18.10
2019-03-03T05:30:17.749Z,16.03
2019-03-03T05:32:48.065Z,18.30
2019-03-03T05:35:18.702Z,19.33
2019-03-03T05:37:49.050Z,17.97
2019-03-03T05:40:19.410Z,18.63
2019-03-03T05:42:49.789Z,17.20
2019-03-03T05:45:20.050Z,18.23
2019-03-03T05:47:50.395Z,17.27
2019-03-03T05:50:21.550Z,18.50
2019-03-03T05:52:52.554Z,17.30
2019-03-03T05:55:23.503Z,16.93
2019-03-03T05:57:53.885Z,15.23
2019-03-03T06:00:24.159Z,16.20
2019-03-03T06:02:55.563Z,16.30
2019-03-03T06:05:25.964Z,15.30
2019-03-03T06:07:56.239Z,15.30
2019-03-03T06:10:26.499Z,16.63
2019-03-03T06:12:56.783Z,13.73
2019-03-03T06:15:27.925Z,14.60
2019-03-03T06:17:58.287Z,14.67
2019-03-03T06:20:28.634Z,14.90
2019-03-03T06:22:58.910Z,16.93
2019-03-03T06:25:29.169Z,16.20
2019-03-03T06:27:59.559Z,15.27
2019-03-03T06:30:29.908Z,16.37
2019-03-03T06:33:00.191Z,14.90
2019-03-03T06:35:30.583Z,16.53
2019-03-03T06:38:00.925Z,15.47
2019-03-03T06:40:31.219Z,16.13
2019-03-03T06:43:01.481Z,14.67
2019-03-03T06:45:31.814Z,15.57
2019-03-03T06:48:02.080Z,15.77
2019-03-03T06:50:32.453Z,15.47
2019-03-03T06:53:02.745Z,15.67
2019-03-03T06:55:33.014Z,16.00
2019-03-03T06:58:03.282Z,16.53
2019-03-03T07:00:34.563Z,15.83
2019-03-03T07:03:04.932Z,16.03
2019-03-03T07:05:35.267Z,15.50
2019-03-03T07:08:05.646Z,15.80
2019-03-03T07:10:35.998Z,15.80
2019-03-03T07:13:06.309Z,15.40
2019-03-03T07:15:37.416Z,15.57
2019-03-03T07:18:07.767Z,15.67
2019-03-03T07:20:38.154Z,17.30
2019-03-03T07:23:08.495Z,15.13
2019-03-03T07:25:38.774Z,14.90
2019-03-03T07:28:09.281Z,17.00
2019-03-03T07:30:39.668Z,16.33
2019-03-03T07:33:11.601Z,14.13
2019-03-03T07:35:42.046Z,15.70
2019-03-03T07:38:12.420Z,15.53
2019-03-03T07:40:42.709Z,14.20
2019-03-03T07:43:13.102Z,15.77
2019-03-03T07:45:43.497Z,16.80
2019-03-03T07:48:13.840Z,15.33
2019-03-03T07:50:44.209Z,14.93
2019-03-03T07:53:14.491Z,14.43
2019-03-03T07:55:44.767Z,16.40
2019-03-03T07:58:15.111Z,15.67
2019-03-03T08:00:46.471Z,16.03
2019-03-03T08:03:16.747Z,14.93
2019-03-03T08:05:47.109Z,16.23
2019-03-03T08:08:17.394Z,15.33
2019-03-03T08:10:47.763Z,15.80
2019-03-03T08:13:18.161Z,14.90
2019-03-03T08:15:51.018Z,15.07
2019-03-03T08:18:21.518Z,14.10
2019-03-03T08:20:51.866Z,14.33
2019-03-03T08:23:22.150Z,13.77
2019-03-03T08:25:52.506Z,13.07
2019-03-03T08:28:22.765Z,14.53
2019-03-03T08:30:53.028Z,14.13
2019-03-03T08:33:23.383Z,13.20
2019-03-03T08:35:53.699Z,12.50
2019-03-03T08:38:24.025Z,12.73
2019-03-03T08:40:54.378Z,12.13
2019-03-03T08:51:09.249Z,11.67
2019-03-03T09:01:24.091Z,11.57
2019-03-03T09:08:12.083Z,11.87
2019-03-03T09:10:50.208Z,10.80
2019-03-03T09:13:22.159Z,11.03
2019-03-03T09:16:12.868Z,12.00
2019-03-03T09:18:50.542Z,9.50
2019-03-03T09:21:38.987Z,10.17
2019-03-03T09:24:27.092Z,10.20
2019-03-03T09:27:17.317Z,10.83
2019-03-03T09:29:54.980Z,9.93
2019-03-03T09:32:36.643Z,10.77
2019-03-03T09:35:20.541Z,8.27
2019-03-03T09:38:04.831Z,8.43
2019-03-03T09:40:45.794Z,9.73
2019-03-03T09:43:22.960Z,8.47
2019-03-03T09:45:56.872Z,8.70
2019-03-03T09:48:31.709Z,8.40
2019-03-03T09:51:10.836Z,8.43
2019-03-03T09:53:54.638Z,11.33
2019-03-03T09:56:40.775Z,7.10
2019-03-03T10:03:05.757Z,8.13
2019-03-03T10:05:48.250Z,7.90
2019-03-03T10:08:26.853Z,6.50
2019-03-03T10:15:29.983Z,7.23
2019-03-03T10:18:18.359Z,5.97
2019-03-03T10:20:59.875Z,6.03
2019-03-03T10:38:49.595Z,4.10
2019-03-03T10:41:25.954Z,5.10
2019-03-03T10:44:00.681Z,5.30
2019-03-03T10:46:47.905Z,5.37
2019-03-03T10:49:42.468Z,5.73
2019-03-03T10:52:27.474Z,4.47
2019-03-03T10:55:08.176Z,4.30
2019-03-03T10:57:44.488Z,4.53
2019-03-03T11:00:30.023Z,4.67
2019-03-03T11:11:39.664Z,4.20
2019-03-03T11:14:20.479Z,4.77
2019-03-03T11:16:52.633Z,3.77
2019-03-03T11:19:38.123Z,4.27
2019-03-03T11:22:12.955Z,4.30
2019-03-03T11:24:44.998Z,4.63
2019-03-03T11:27:19.663Z,4.17
2019-03-03T11:29:51.641Z,3.70
2019-03-03T11:32:29.760Z,3.67
2019-03-03T11:35:01.977Z,4.53
2019-03-03T11:37:37.527Z,4.63
2019-03-03T11:40:13.128Z,3.60
2019-03-03T11:43:01.671Z,4.00
2019-03-03T11:45:36.625Z,3.40
2019-03-03T11:48:14.523Z,3.27
2019-03-03T11:50:52.199Z,3.83
2019-03-03T11:53:31.711Z,4.17
2019-03-03T11:56:12.895Z,3.90
2019-03-03T11:59:03.076Z,3.27
2019-03-03T12:01:47.974Z,4.20
2019-03-03T12:04:28.936Z,3.70
2019-03-03T12:07:00.914Z,3.47
2019-03-03T12:09:52.258Z,3.17
2019-03-03T12:12:40.328Z,3.47
2019-03-03T12:15:21.103Z,3.43
2019-03-03T12:18:09.213Z,3.40
2019-03-03T12:20:41.928Z,3.10
2019-03-03T12:23:19.635Z,3.50
2019-03-03T12:25:54.018Z,4.00
2019-03-03T12:28:42.132Z,3.30
2019-03-03T12:31:15.466Z,3.60
2019-03-03T12:33:49.023Z,3.10
2019-03-03T12:36:37.273Z,3.30
2019-03-03T12:39:09.376Z,3.63
2019-03-03T12:41:51.522Z,3.00
2019-03-03T12:44:26.287Z,3.23
2019-03-03T12:47:06.915Z,2.93
2019-03-03T12:49:55.338Z,3.37
2019-03-03T12:52:39.475Z,3.57
2019-03-03T12:55:20.529Z,3.73
2019-03-03T12:57:52.400Z,3.00
2019-03-03T13:00:36.342Z,3.10
2019-03-03T13:03:24.931Z,3.07
2019-03-03T13:06:13.345Z,3.77
2019-03-03T13:08:59.402Z,3.40
2019-03-03T13:11:30.910Z,3.27
2019-03-03T13:14:05.888Z,3.63
2019-03-03T13:16:40.847Z,3.50
2019-03-03T13:19:18.495Z,3.50
2019-03-03T13:22:06.683Z,3.47
2019-03-03T13:24:38.788Z,3.30
2019-03-03T13:27:10.790Z,4.10
2019-03-03T13:29:42.886Z,2.97
2019-03-03T13:32:17.839Z,3.53
2019-03-03T13:34:50.990Z,3.87
2019-03-03T13:37:37.307Z,4.10
2019-03-03T13:40:13.748Z,3.80
2019-03-03T13:42:45.713Z,4.23
2019-03-03T13:45:16.000Z,4.47
2019-03-03T13:47:46.255Z,3.90
2019-03-03T13:50:16.613Z,4.60
2019-03-03T13:52:46.964Z,4.40
2019-03-03T13:55:17.504Z,3.63
2019-03-03T13:57:47.770Z,4.30
2019-03-03T14:36:22.414Z,4.10
2019-03-03T15:02:53.594Z,4.23
2019-03-03T15:09:24.618Z,4.97
2019-03-03T15:21:59.151Z,4.43
2019-03-03T15:24:32.581Z,5.23
2019-03-03T15:27:03.221Z,5.20
2019-03-03T15:29:33.511Z,5.00
2019-03-03T15:32:03.828Z,5.13
2019-03-03T15:45:57.430Z,5.47
2019-03-03T16:16:44.313Z,5.67
2019-03-03T16:57:02.266Z,5.80
2019-03-03T16:59:35.118Z,5.27
2019-03-03T17:09:16.955Z,5.33
2019-03-03T17:11:47.709Z,4.87
2019-03-03T17:14:18.050Z,5.80
2019-03-03T17:24:32.491Z,5.77
2019-03-03T17:27:04.640Z,4.37
2019-03-03T17:29:34.866Z,5.40
2019-03-03T17:32:05.325Z,4.80
2019-03-03T17:42:37.236Z,5.27
2019-03-03T17:45:34.292Z,5.90
2019-03-03T17:48:06.174Z,5.43
2019-03-03T17:54:36.578Z,5.47
2019-03-03T17:57:07.064Z,5.97
2019-03-03T17:59:42.102Z,5.80
2019-03-03T18:02:19.538Z,5.03
2019-03-03T18:05:41.923Z,5.77
2019-03-03T18:08:12.355Z,5.60
2019-03-03T18:11:07.340Z,6.53
2019-03-03T18:13:37.878Z,5.43
2019-03-03T18:16:09.100Z,5.73
2019-03-03T18:18:39.461Z,5.97
2019-03-03T18:21:10.308Z,6.33
2019-03-03T18:28:03.557Z,6.50
2019-03-03T18:30:35.001Z,6.87
2019-03-03T18:33:05.340Z,6.20
2019-03-03T18:35:57.820Z,6.23
2019-03-03T18:43:01.559Z,6.80
2019-03-03T18:49:51.328Z,5.97
2019-03-03T18:53:11.008Z,5.93
2019-03-03T18:56:11.377Z,6.10
2019-03-03T19:14:30.168Z,5.93
2019-03-03T19:17:00.594Z,6.03
2019-03-03T19:19:32.913Z,6.00
2019-03-03T19:22:04.100Z,6.67
2019-03-03T19:24:37.365Z,5.80
2019-03-03T19:27:07.817Z,6.27
2019-03-03T19:29:40.170Z,6.27
2019-03-03T19:32:11.494Z,6.67
2019-03-03T19:34:47.629Z,6.33
2019-03-03T19:37:23.378Z,6.97
2019-03-03T19:39:54.138Z,5.87
2019-03-03T19:42:24.626Z,6.30
2019-03-03T19:44:55.083Z,5.97
2019-03-03T19:47:25.399Z,6.07
2019-03-03T19:49:55.593Z,6.07
2019-03-03T19:52:28.755Z,6.47
2019-03-03T19:54:58.229Z,5.87
2019-03-03T19:57:31.094Z,5.73
2019-03-03T20:00:04.173Z,5.93
2019-03-03T20:02:37.026Z,4.77
2019-03-03T20:05:07.295Z,4.70
2019-03-03T20:07:38.519Z,5.60
2019-03-03T20:10:15.674Z,4.50
2019-03-03T20:12:48.349Z,4.73
2019-03-03T20:15:23.747Z,4.40
2019-03-03T20:24:50.919Z,5.20
2019-03-03T20:27:24.104Z,5.27
2019-03-03T20:32:47.521Z,4.57
2019-03-03T20:53:47.062Z,4.67
2019-03-03T20:56:18.857Z,4.70
2019-03-03T20:58:53.993Z,4.37
2019-03-03T21:01:24.514Z,3.70
2019-03-03T21:03:54.800Z,4.87
2019-03-03T21:06:25.075Z,4.03
2019-03-03T21:08:55.384Z,5.00
2019-03-03T21:11:26.206Z,4.93
2019-03-03T21:13:56.907Z,4.83
2019-03-03T21:16:27.351Z,4.37
2019-03-03T21:18:57.810Z,5.47
2019-03-03T21:21:28.594Z,4.57
2019-03-03T21:28:27.766Z,4.33
2019-03-03T21:30:59.013Z,4.50
2019-03-03T21:33:29.278Z,4.80
2019-03-03T21:36:30.932Z,3.73
2019-03-03T21:39:38.601Z,4.67
2019-03-03T21:42:08.926Z,4.53
2019-03-03T21:45:15.090Z,3.97
2019-03-03T21:47:47.510Z,4.47
2019-03-03T21:50:19.787Z,4.47
2019-03-03T21:52:50.614Z,4.50
2019-03-03T21:55:21.015Z,3.97
2019-03-03T21:57:51.354Z,3.97
2019-03-03T22:00:27.427Z,3.83
2019-03-03T22:02:57.835Z,3.83
2019-03-03T22:05:31.956Z,4.00
2019-03-03T22:08:02.226Z,4.73
2019-03-03T22:10:33.630Z,3.97
2019-03-03T22:13:08.581Z,3.87
2019-03-03T22:15:39.062Z,4.10
2019-03-03T22:18:10.722Z,3.87
2019-03-03T22:20:42.879Z,4.50
2019-03-03T22:23:13.645Z,4.43
2019-03-03T22:25:43.997Z,4.17
2019-03-03T22:28:15.587Z,4.17
2019-03-03T22:30:46.049Z,4.33
2019-03-03T22:33:16.402Z,3.60
2019-03-03T22:36:59.915Z,4.23
2019-03-03T22:39:30.251Z,5.13
2019-03-03T22:42:00.547Z,4.00
2019-03-03T22:44:30.778Z,3.87
2019-03-03T22:47:01.179Z,4.40
2019-03-03T22:49:31.582Z,4.43
2019-03-03T22:52:02.646Z,4.17
2019-03-03T22:54:48.090Z,3.87
2019-03-03T22:57:18.352Z,4.20
2019-03-03T23:00:21.759Z,3.80
2019-03-03T23:02:53.658Z,3.97
2019-03-03T23:05:36.064Z,4.40
2019-03-03T23:08:09.676Z,3.80
2019-03-03T23:10:47.040Z,3.60
2019-03-03T23:13:32.830Z,3.50
2019-03-03T23:16:09.030Z,3.47
2019-03-03T23:18:54.450Z,3.53
2019-03-03T23:21:37.050Z,3.50
2019-03-03T23:24:36.260Z,3.30
2019-03-03T23:27:07.193Z,3.20
2019-03-03T23:29:39.273Z,3.30
2019-03-03T23:32:12.295Z,3.30
2019-03-03T23:35:48.096Z,3.57
2019-03-03T23:38:31.757Z,3.60
2019-03-03T23:41:02.041Z,2.77
2019-03-03T23:43:32.390Z,3.27
2019-03-03T23:46:05.545Z,3.20
2019-03-03T23:48:35.878Z,3.37
2019-03-03T23:51:06.237Z,3.07
2019-03-03T23:53:36.820Z,3.03
2019-03-03T23:56:07.147Z,3.00
2019-03-03T23:58:37.473Z,2.77
